sensor_id;sensor_type;location;lat;lon;timestamp;P1;durP1;ratioP1;P2;durP2;ratioP2
74102;SDS011;62853;46.166;3.640;2023-07-16T00:01:41;6.93;;;3.65;;
74102;SDS011;62853;46.166;3.640;2023-07-16T00:04:06;8.10;;;3.42;;
74102;SDS011;62853;46.166;3.640;2023-07-16T00:06:32;11.25;;;4.03;;
74102;SDS011;62853;46.166;3.640;2023-07-16T00:08:57;8.98;;;3.90;;
74102;SDS011;62853;46.166;3.640;2023-07-16T00:11:24;9.15;;;4.00;;
74102;SDS011;62853;46.166;3.640;2023-07-16T00:13:49;7.47;;;3.70;;
74102;SDS011;62853;46.166;3.640;2023-07-16T00:16:15;6.03;;;3.47;;
74102;SDS011;62853;46.166;3.640;2023-07-16T00:18:46;5.30;;;3.38;;
74102;SDS011;62853;46.166;3.640;2023-07-16T00:21:11;6.57;;;3.80;;
74102;SDS011;62853;46.166;3.640;2023-07-16T00:23:37;7.22;;;4.05;;
74102;SDS011;62853;46.166;3.640;2023-07-16T00:26:02;8.00;;;4.15;;
74102;SDS011;62853;46.166;3.640;2023-07-16T00:28:28;6.63;;;3.63;;
74102;SDS011;62853;46.166;3.640;2023-07-16T00:30:54;6.82;;;3.95;;
74102;SDS011;62853;46.166;3.640;2023-07-16T00:33:19;6.45;;;3.60;;
74102;SDS011;62853;46.166;3.640;2023-07-16T00:35:48;5.97;;;3.70;;
74102;SDS011;62853;46.166;3.640;2023-07-16T00:38:14;9.23;;;4.30;;
74102;SDS011;62853;46.166;3.640;2023-07-16T00:40:41;7.28;;;4.53;;
74102;SDS011;62853;46.166;3.640;2023-07-16T00:43:07;7.68;;;4.57;;
74102;SDS011;62853;46.166;3.640;2023-07-16T00:45:32;8.85;;;4.88;;
74102;SDS011;62853;46.166;3.640;2023-07-16T00:47:57;8.10;;;4.15;;
74102;SDS011;62853;46.166;3.640;2023-07-16T00:50:23;8.18;;;4.53;;
74102;SDS011;62853;46.166;3.640;2023-07-16T00:52:49;7.60;;;4.10;;
74102;SDS011;62853;46.166;3.640;2023-07-16T00:55:17;9.15;;;4.55;;
74102;SDS011;62853;46.166;3.640;2023-07-16T00:57:43;6.18;;;4.50;;
74102;SDS011;62853;46.166;3.640;2023-07-16T01:00:08;6.82;;;4.53;;
74102;SDS011;62853;46.166;3.640;2023-07-16T01:02:35;5.75;;;4.43;;
74102;SDS011;62853;46.166;3.640;2023-07-16T01:05:00;9.75;;;5.07;;
74102;SDS011;62853;46.166;3.640;2023-07-16T01:07:26;8.27;;;4.93;;
74102;SDS011;62853;46.166;3.640;2023-07-16T01:09:54;10.68;;;4.88;;
74102;SDS011;62853;46.166;3.640;2023-07-16T01:12:22;10.02;;;4.68;;
74102;SDS011;62853;46.166;3.640;2023-07-16T01:14:47;8.30;;;4.63;;
74102;SDS011;62853;46.166;3.640;2023-07-16T01:17:14;6.82;;;4.80;;
74102;SDS011;62853;46.166;3.640;2023-07-16T01:19:39;7.53;;;4.45;;
74102;SDS011;62853;46.166;3.640;2023-07-16T01:30:23;9.80;;;4.45;;
74102;SDS011;62853;46.166;3.640;2023-07-16T01:32:50;7.32;;;4.00;;
74102;SDS011;62853;46.166;3.640;2023-07-16T01:35:15;11.25;;;4.97;;
74102;SDS011;62853;46.166;3.640;2023-07-16T01:37:42;6.88;;;4.13;;
74102;SDS011;62853;46.166;3.640;2023-07-16T01:40:07;8.55;;;4.55;;
74102;SDS011;62853;46.166;3.640;2023-07-16T01:42:36;12.65;;;4.57;;
74102;SDS011;62853;46.166;3.640;2023-07-16T01:45:02;7.30;;;4.57;;
74102;SDS011;62853;46.166;3.640;2023-07-16T01:49:53;9.35;;;4.40;;
74102;SDS011;62853;46.166;3.640;2023-07-16T01:52:19;10.27;;;4.57;;
74102;SDS011;62853;46.166;3.640;2023-07-16T01:54:44;8.38;;;3.92;;
74102;SDS011;62853;46.166;3.640;2023-07-16T01:57:10;8.45;;;4.18;;
74102;SDS011;62853;46.166;3.640;2023-07-16T01:59:36;12.13;;;4.25;;
74102;SDS011;62853;46.166;3.640;2023-07-16T02:02:01;7.20;;;4.15;;
74102;SDS011;62853;46.166;3.640;2023-07-16T02:04:27;8.02;;;4.32;;
74102;SDS011;62853;46.166;3.640;2023-07-16T02:06:52;9.68;;;4.20;;
74102;SDS011;62853;46.166;3.640;2023-07-16T02:09:17;6.45;;;4.20;;
74102;SDS011;62853;46.166;3.640;2023-07-16T02:11:43;5.97;;;4.13;;
74102;SDS011;62853;46.166;3.640;2023-07-16T02:14:08;10.30;;;4.97;;
74102;SDS011;62853;46.166;3.640;2023-07-16T02:16:34;8.77;;;4.57;;
74102;SDS011;62853;46.166;3.640;2023-07-16T02:18:59;7.47;;;4.60;;
74102;SDS011;62853;46.166;3.640;2023-07-16T02:21:25;8.43;;;4.72;;
74102;SDS011;62853;46.166;3.640;2023-07-16T02:23:50;9.52;;;4.65;;
74102;SDS011;62853;46.166;3.640;2023-07-16T02:26:16;9.15;;;4.63;;
74102;SDS011;62853;46.166;3.640;2023-07-16T02:28:41;6.80;;;4.32;;
74102;SDS011;62853;46.166;3.640;2023-07-16T02:31:06;9.25;;;4.65;;
74102;SDS011;62853;46.166;3.640;2023-07-16T02:33:32;9.05;;;4.32;;
74102;SDS011;62853;46.166;3.640;2023-07-16T02:35:57;11.40;;;4.80;;
74102;SDS011;62853;46.166;3.640;2023-07-16T02:38:22;10.65;;;4.72;;
74102;SDS011;62853;46.166;3.640;2023-07-16T02:40:48;9.10;;;4.55;;
74102;SDS011;62853;46.166;3.640;2023-07-16T02:43:14;7.00;;;4.72;;
74102;SDS011;62853;46.166;3.640;2023-07-16T02:45:39;7.55;;;4.50;;
74102;SDS011;62853;46.166;3.640;2023-07-16T02:48:05;9.02;;;4.80;;
74102;SDS011;62853;46.166;3.640;2023-07-16T02:50:35;8.15;;;3.92;;
74102;SDS011;62853;46.166;3.640;2023-07-16T02:53:04;7.55;;;4.22;;
74102;SDS011;62853;46.166;3.640;2023-07-16T02:55:30;7.47;;;4.03;;
74102;SDS011;62853;46.166;3.640;2023-07-16T02:57:55;9.52;;;4.55;;
74102;SDS011;62853;46.166;3.640;2023-07-16T03:00:21;8.60;;;4.63;;
74102;SDS011;62853;46.166;3.640;2023-07-16T03:02:46;10.05;;;4.40;;
74102;SDS011;62853;46.166;3.640;2023-07-16T03:05:12;8.43;;;4.63;;
74102;SDS011;62853;46.166;3.640;2023-07-16T03:07:37;8.38;;;4.88;;
74102;SDS011;62853;46.166;3.640;2023-07-16T03:10:03;11.57;;;5.10;;
74102;SDS011;62853;46.166;3.640;2023-07-16T03:12:28;11.38;;;4.85;;
74102;SDS011;62853;46.166;3.640;2023-07-16T03:14:54;12.68;;;5.38;;
74102;SDS011;62853;46.166;3.640;2023-07-16T03:17:22;12.50;;;5.40;;
74102;SDS011;62853;46.166;3.640;2023-07-16T03:19:48;10.38;;;5.57;;
74102;SDS011;62853;46.166;3.640;2023-07-16T03:22:13;9.43;;;5.05;;
74102;SDS011;62853;46.166;3.640;2023-07-16T03:24:39;10.57;;;5.03;;
74102;SDS011;62853;46.166;3.640;2023-07-16T03:27:05;12.57;;;5.13;;
74102;SDS011;62853;46.166;3.640;2023-07-16T03:29:32;11.10;;;5.57;;
74102;SDS011;62853;46.166;3.640;2023-07-16T03:31:58;9.48;;;5.10;;
74102;SDS011;62853;46.166;3.640;2023-07-16T03:34:23;10.93;;;5.70;;
74102;SDS011;62853;46.166;3.640;2023-07-16T03:36:49;10.60;;;5.45;;
74102;SDS011;62853;46.166;3.640;2023-07-16T03:39:14;8.95;;;5.30;;
74102;SDS011;62853;46.166;3.640;2023-07-16T03:41:40;10.68;;;6.07;;
74102;SDS011;62853;46.166;3.640;2023-07-16T03:44:05;11.73;;;5.63;;
74102;SDS011;62853;46.166;3.640;2023-07-16T03:46:30;10.52;;;5.35;;
74102;SDS011;62853;46.166;3.640;2023-07-16T03:48:56;12.45;;;6.03;;
74102;SDS011;62853;46.166;3.640;2023-07-16T03:51:21;13.85;;;5.82;;
74102;SDS011;62853;46.166;3.640;2023-07-16T03:53:47;12.75;;;5.68;;
74102;SDS011;62853;46.166;3.640;2023-07-16T03:56:12;13.23;;;5.90;;
74102;SDS011;62853;46.166;3.640;2023-07-16T03:58:38;14.43;;;5.90;;
74102;SDS011;62853;46.166;3.640;2023-07-16T04:01:03;14.35;;;6.05;;
74102;SDS011;62853;46.166;3.640;2023-07-16T04:03:28;10.93;;;6.50;;
74102;SDS011;62853;46.166;3.640;2023-07-16T04:06:00;10.95;;;5.90;;
74102;SDS011;62853;46.166;3.640;2023-07-16T04:08:30;14.32;;;6.70;;
74102;SDS011;62853;46.166;3.640;2023-07-16T04:10:55;14.57;;;6.78;;
74102;SDS011;62853;46.166;3.640;2023-07-16T04:13:21;10.02;;;6.32;;
74102;SDS011;62853;46.166;3.640;2023-07-16T04:15:46;11.80;;;6.03;;
74102;SDS011;62853;46.166;3.640;2023-07-16T04:18:12;15.88;;;7.40;;
74102;SDS011;62853;46.166;3.640;2023-07-16T04:20:37;11.10;;;7.22;;
74102;SDS011;62853;46.166;3.640;2023-07-16T04:23:02;12.52;;;6.57;;
74102;SDS011;62853;46.166;3.640;2023-07-16T04:25:28;12.95;;;7.07;;
74102;SDS011;62853;46.166;3.640;2023-07-16T04:27:53;14.70;;;6.80;;
74102;SDS011;62853;46.166;3.640;2023-07-16T04:30:19;11.85;;;6.97;;
74102;SDS011;62853;46.166;3.640;2023-07-16T04:32:44;14.10;;;7.32;;
74102;SDS011;62853;46.166;3.640;2023-07-16T04:35:10;13.55;;;7.70;;
74102;SDS011;62853;46.166;3.640;2023-07-16T04:37:35;14.25;;;7.45;;
74102;SDS011;62853;46.166;3.640;2023-07-16T04:40:01;11.52;;;7.20;;
74102;SDS011;62853;46.166;3.640;2023-07-16T04:42:26;12.85;;;7.65;;
74102;SDS011;62853;46.166;3.640;2023-07-16T04:44:51;14.40;;;7.72;;
74102;SDS011;62853;46.166;3.640;2023-07-16T04:47:17;12.68;;;7.72;;
74102;SDS011;62853;46.166;3.640;2023-07-16T04:49:42;13.15;;;8.20;;
74102;SDS011;62853;46.166;3.640;2023-07-16T04:52:07;12.13;;;7.18;;
74102;SDS011;62853;46.166;3.640;2023-07-16T04:54:36;16.80;;;8.18;;
74102;SDS011;62853;46.166;3.640;2023-07-16T04:57:03;12.40;;;7.18;;
74102;SDS011;62853;46.166;3.640;2023-07-16T04:59:29;12.77;;;7.43;;
74102;SDS011;62853;46.166;3.640;2023-07-16T05:01:54;17.42;;;7.72;;
74102;SDS011;62853;46.166;3.640;2023-07-16T05:04:21;12.20;;;7.57;;
74102;SDS011;62853;46.166;3.640;2023-07-16T05:06:47;14.43;;;7.80;;
74102;SDS011;62853;46.166;3.640;2023-07-16T05:09:12;22.73;;;7.70;;
74102;SDS011;62853;46.166;3.640;2023-07-16T05:11:37;19.38;;;8.25;;
74102;SDS011;62853;46.166;3.640;2023-07-16T05:14:03;20.20;;;8.43;;
74102;SDS011;62853;46.166;3.640;2023-07-16T05:16:29;12.23;;;8.05;;
74102;SDS011;62853;46.166;3.640;2023-07-16T05:18:57;14.70;;;8.52;;
74102;SDS011;62853;46.166;3.640;2023-07-16T05:21:23;14.93;;;8.30;;
74102;SDS011;62853;46.166;3.640;2023-07-16T05:23:48;17.13;;;8.02;;
74102;SDS011;62853;46.166;3.640;2023-07-16T05:26:13;13.27;;;8.40;;
74102;SDS011;62853;46.166;3.640;2023-07-16T05:28:39;17.08;;;8.05;;
74102;SDS011;62853;46.166;3.640;2023-07-16T05:31:04;14.88;;;8.45;;
74102;SDS011;62853;46.166;3.640;2023-07-16T05:33:29;13.30;;;7.28;;
74102;SDS011;62853;46.166;3.640;2023-07-16T05:35:55;12.82;;;8.43;;
74102;SDS011;62853;46.166;3.640;2023-07-16T05:38:21;14.63;;;8.30;;
74102;SDS011;62853;46.166;3.640;2023-07-16T05:40:46;15.00;;;8.43;;
74102;SDS011;62853;46.166;3.640;2023-07-16T05:43:12;13.88;;;8.73;;
74102;SDS011;62853;46.166;3.640;2023-07-16T05:45:38;13.63;;;8.60;;
74102;SDS011;62853;46.166;3.640;2023-07-16T05:48:03;12.93;;;9.02;;
74102;SDS011;62853;46.166;3.640;2023-07-16T05:50:29;17.73;;;8.63;;
74102;SDS011;62853;46.166;3.640;2023-07-16T05:52:54;14.85;;;8.18;;
74102;SDS011;62853;46.166;3.640;2023-07-16T05:55:20;15.75;;;8.23;;
74102;SDS011;62853;46.166;3.640;2023-07-16T05:57:45;14.43;;;7.55;;
74102;SDS011;62853;46.166;3.640;2023-07-16T06:00:11;16.73;;;7.93;;
74102;SDS011;62853;46.166;3.640;2023-07-16T06:02:38;12.93;;;7.70;;
74102;SDS011;62853;46.166;3.640;2023-07-16T06:05:04;12.40;;;7.72;;
74102;SDS011;62853;46.166;3.640;2023-07-16T06:07:30;12.07;;;7.70;;
74102;SDS011;62853;46.166;3.640;2023-07-16T06:09:56;17.33;;;6.93;;
74102;SDS011;62853;46.166;3.640;2023-07-16T06:12:21;12.80;;;8.00;;
74102;SDS011;62853;46.166;3.640;2023-07-16T06:14:47;19.50;;;7.40;;
74102;SDS011;62853;46.166;3.640;2023-07-16T06:17:12;13.75;;;7.38;;
74102;SDS011;62853;46.166;3.640;2023-07-16T06:19:37;13.20;;;7.32;;
74102;SDS011;62853;46.166;3.640;2023-07-16T06:22:03;15.13;;;7.90;;
74102;SDS011;62853;46.166;3.640;2023-07-16T06:24:28;12.55;;;7.80;;
74102;SDS011;62853;46.166;3.640;2023-07-16T06:26:54;15.77;;;8.55;;
74102;SDS011;62853;46.166;3.640;2023-07-16T06:29:19;14.32;;;8.05;;
74102;SDS011;62853;46.166;3.640;2023-07-16T06:31:53;15.55;;;8.57;;
74102;SDS011;62853;46.166;3.640;2023-07-16T06:34:23;17.08;;;8.50;;
74102;SDS011;62853;46.166;3.640;2023-07-16T06:36:49;15.25;;;9.00;;
74102;SDS011;62853;46.166;3.640;2023-07-16T06:39:14;12.50;;;9.48;;
74102;SDS011;62853;46.166;3.640;2023-07-16T06:41:39;16.25;;;9.48;;
74102;SDS011;62853;46.166;3.640;2023-07-16T06:44:05;12.93;;;9.38;;
74102;SDS011;62853;46.166;3.640;2023-07-16T06:46:30;15.90;;;9.23;;
74102;SDS011;62853;46.166;3.640;2023-07-16T06:48:56;18.10;;;9.85;;
74102;SDS011;62853;46.166;3.640;2023-07-16T06:51:21;18.00;;;9.38;;
74102;SDS011;62853;46.166;3.640;2023-07-16T06:53:46;14.38;;;9.40;;
74102;SDS011;62853;46.166;3.640;2023-07-16T06:56:12;13.98;;;9.27;;
74102;SDS011;62853;46.166;3.640;2023-07-16T06:58:37;17.48;;;10.00;;
74102;SDS011;62853;46.166;3.640;2023-07-16T07:01:03;12.93;;;10.27;;
74102;SDS011;62853;46.166;3.640;2023-07-16T07:03:28;15.32;;;9.63;;
74102;SDS011;62853;46.166;3.640;2023-07-16T07:05:53;13.48;;;8.60;;
74102;SDS011;62853;46.166;3.640;2023-07-16T07:08:19;13.57;;;8.80;;
74102;SDS011;62853;46.166;3.640;2023-07-16T07:10:44;14.10;;;8.88;;
74102;SDS011;62853;46.166;3.640;2023-07-16T07:13:11;14.23;;;8.70;;
74102;SDS011;62853;46.166;3.640;2023-07-16T07:15:37;14.02;;;8.10;;
74102;SDS011;62853;46.166;3.640;2023-07-16T07:18:02;14.15;;;7.55;;
74102;SDS011;62853;46.166;3.640;2023-07-16T07:20:28;14.95;;;8.13;;
74102;SDS011;62853;46.166;3.640;2023-07-16T07:22:53;10.60;;;7.65;;
74102;SDS011;62853;46.166;3.640;2023-07-16T07:25:19;12.90;;;7.68;;
74102;SDS011;62853;46.166;3.640;2023-07-16T07:27:44;13.95;;;7.18;;
74102;SDS011;62853;46.166;3.640;2023-07-16T07:30:10;9.32;;;6.63;;
74102;SDS011;62853;46.166;3.640;2023-07-16T07:32:36;12.23;;;7.47;;
74102;SDS011;62853;46.166;3.640;2023-07-16T07:35:03;11.43;;;6.78;;
74102;SDS011;62853;46.166;3.640;2023-07-16T07:37:28;10.85;;;6.50;;
74102;SDS011;62853;46.166;3.640;2023-07-16T07:39:54;9.32;;;6.20;;
74102;SDS011;62853;46.166;3.640;2023-07-16T07:42:19;10.27;;;6.22;;
74102;SDS011;62853;46.166;3.640;2023-07-16T07:44:44;10.80;;;5.90;;
74102;SDS011;62853;46.166;3.640;2023-07-16T07:47:10;10.50;;;6.32;;
74102;SDS011;62853;46.166;3.640;2023-07-16T07:49:35;9.52;;;6.22;;
74102;SDS011;62853;46.166;3.640;2023-07-16T07:52:01;9.40;;;6.07;;
74102;SDS011;62853;46.166;3.640;2023-07-16T07:54:26;8.35;;;6.53;;
74102;SDS011;62853;46.166;3.640;2023-07-16T07:56:51;12.57;;;6.75;;
74102;SDS011;62853;46.166;3.640;2023-07-16T07:59:17;10.48;;;6.07;;
74102;SDS011;62853;46.166;3.640;2023-07-16T08:01:42;8.80;;;5.95;;
74102;SDS011;62853;46.166;3.640;2023-07-16T08:04:07;9.30;;;5.78;;
74102;SDS011;62853;46.166;3.640;2023-07-16T08:06:33;8.00;;;5.90;;
74102;SDS011;62853;46.166;3.640;2023-07-16T08:08:58;11.07;;;6.00;;
74102;SDS011;62853;46.166;3.640;2023-07-16T08:11:24;9.40;;;5.85;;
74102;SDS011;62853;46.166;3.640;2023-07-16T08:13:49;11.98;;;5.70;;
74102;SDS011;62853;46.166;3.640;2023-07-16T08:16:15;10.10;;;5.85;;
74102;SDS011;62853;46.166;3.640;2023-07-16T08:18:40;8.05;;;4.88;;
74102;SDS011;62853;46.166;3.640;2023-07-16T08:21:05;9.15;;;4.95;;
74102;SDS011;62853;46.166;3.640;2023-07-16T08:23:31;9.30;;;5.25;;
74102;SDS011;62853;46.166;3.640;2023-07-16T08:25:56;7.82;;;5.20;;
74102;SDS011;62853;46.166;3.640;2023-07-16T08:28:22;7.03;;;4.88;;
74102;SDS011;62853;46.166;3.640;2023-07-16T08:30:47;9.52;;;4.72;;
74102;SDS011;62853;46.166;3.640;2023-07-16T08:33:13;8.65;;;5.20;;
74102;SDS011;62853;46.166;3.640;2023-07-16T08:35:39;7.15;;;4.35;;
74102;SDS011;62853;46.166;3.640;2023-07-16T08:38:05;11.55;;;4.80;;
74102;SDS011;62853;46.166;3.640;2023-07-16T08:40:34;9.10;;;5.45;;
74102;SDS011;62853;46.166;3.640;2023-07-16T08:43:01;7.93;;;4.82;;
74102;SDS011;62853;46.166;3.640;2023-07-16T08:45:28;8.40;;;4.93;;
74102;SDS011;62853;46.166;3.640;2023-07-16T08:47:55;9.20;;;5.40;;
74102;SDS011;62853;46.166;3.640;2023-07-16T08:50:21;8.30;;;5.30;;
74102;SDS011;62853;46.166;3.640;2023-07-16T08:52:47;9.05;;;5.30;;
74102;SDS011;62853;46.166;3.640;2023-07-16T08:55:13;8.20;;;5.43;;
74102;SDS011;62853;46.166;3.640;2023-07-16T08:57:39;7.78;;;5.47;;
74102;SDS011;62853;46.166;3.640;2023-07-16T09:00:05;7.72;;;5.15;;
74102;SDS011;62853;46.166;3.640;2023-07-16T09:02:32;9.25;;;5.10;;
74102;SDS011;62853;46.166;3.640;2023-07-16T09:04:57;10.07;;;4.70;;
74102;SDS011;62853;46.166;3.640;2023-07-16T09:07:23;7.00;;;4.55;;
74102;SDS011;62853;46.166;3.640;2023-07-16T09:09:56;8.57;;;4.63;;
74102;SDS011;62853;46.166;3.640;2023-07-16T09:12:23;8.82;;;5.13;;
74102;SDS011;62853;46.166;3.640;2023-07-16T09:14:49;7.97;;;4.85;;
74102;SDS011;62853;46.166;3.640;2023-07-16T09:17:19;9.20;;;4.80;;
74102;SDS011;62853;46.166;3.640;2023-07-16T09:19:49;9.35;;;4.70;;
74102;SDS011;62853;46.166;3.640;2023-07-16T09:22:19;5.53;;;4.50;;
74102;SDS011;62853;46.166;3.640;2023-07-16T09:24:45;6.68;;;4.75;;
74102;SDS011;62853;46.166;3.640;2023-07-16T09:27:12;8.07;;;4.82;;
74102;SDS011;62853;46.166;3.640;2023-07-16T09:29:38;6.97;;;4.60;;
74102;SDS011;62853;46.166;3.640;2023-07-16T09:32:04;7.97;;;4.53;;
74102;SDS011;62853;46.166;3.640;2023-07-16T09:34:30;5.50;;;4.20;;
74102;SDS011;62853;46.166;3.640;2023-07-16T09:36:59;6.45;;;4.53;;
74102;SDS011;62853;46.166;3.640;2023-07-16T09:39:26;7.60;;;4.47;;
74102;SDS011;62853;46.166;3.640;2023-07-16T09:41:52;5.13;;;4.28;;
74102;SDS011;62853;46.166;3.640;2023-07-16T09:44:18;9.52;;;4.88;;
74102;SDS011;62853;46.166;3.640;2023-07-16T09:46:45;6.25;;;4.45;;
74102;SDS011;62853;46.166;3.640;2023-07-16T09:49:11;8.32;;;4.43;;
74102;SDS011;62853;46.166;3.640;2023-07-16T09:51:37;6.78;;;4.32;;
74102;SDS011;62853;46.166;3.640;2023-07-16T09:54:04;7.60;;;4.78;;
74102;SDS011;62853;46.166;3.640;2023-07-16T09:56:33;7.93;;;4.57;;
74102;SDS011;62853;46.166;3.640;2023-07-16T09:59:05;7.38;;;4.70;;
74102;SDS011;62853;46.166;3.640;2023-07-16T10:01:36;6.95;;;4.40;;
74102;SDS011;62853;46.166;3.640;2023-07-16T10:04:13;5.97;;;4.50;;
74102;SDS011;62853;46.166;3.640;2023-07-16T10:09:37;6.05;;;3.97;;
74102;SDS011;62853;46.166;3.640;2023-07-16T10:14:45;8.13;;;4.20;;
74102;SDS011;62853;46.166;3.640;2023-07-16T10:17:13;11.38;;;5.03;;
74102;SDS011;62853;46.166;3.640;2023-07-16T10:20:17;8.35;;;5.07;;
74102;SDS011;62853;46.166;3.640;2023-07-16T10:22:41;8.20;;;5.30;;
74102;SDS011;62853;46.166;3.640;2023-07-16T10:25:21;7.57;;;5.07;;
74102;SDS011;62853;46.166;3.640;2023-07-16T10:27:49;9.20;;;5.10;;
74102;SDS011;62853;46.166;3.640;2023-07-16T10:30:16;7.70;;;4.88;;
74102;SDS011;62853;46.166;3.640;2023-07-16T10:32:42;9.88;;;5.45;;
74102;SDS011;62853;46.166;3.640;2023-07-16T10:35:09;9.20;;;5.07;;
74102;SDS011;62853;46.166;3.640;2023-07-16T10:37:35;7.60;;;4.95;;
74102;SDS011;62853;46.166;3.640;2023-07-16T10:40:02;8.30;;;5.03;;
74102;SDS011;62853;46.166;3.640;2023-07-16T10:42:28;8.00;;;4.55;;
74102;SDS011;62853;46.166;3.640;2023-07-16T10:44:54;13.57;;;5.93;;
74102;SDS011;62853;46.166;3.640;2023-07-16T10:47:23;6.97;;;4.85;;
74102;SDS011;62853;46.166;3.640;2023-07-16T10:49:51;8.00;;;5.13;;
74102;SDS011;62853;46.166;3.640;2023-07-16T10:52:20;7.25;;;4.82;;
74102;SDS011;62853;46.166;3.640;2023-07-16T10:54:49;9.40;;;5.15;;
74102;SDS011;62853;46.166;3.640;2023-07-16T10:57:15;9.40;;;5.07;;
74102;SDS011;62853;46.166;3.640;2023-07-16T10:59:41;7.78;;;5.28;;
74102;SDS011;62853;46.166;3.640;2023-07-16T11:02:10;9.27;;;5.68;;
74102;SDS011;62853;46.166;3.640;2023-07-16T11:04:37;11.85;;;5.90;;
74102;SDS011;62853;46.166;3.640;2023-07-16T11:07:04;10.25;;;5.43;;
74102;SDS011;62853;46.166;3.640;2023-07-16T11:09:31;9.00;;;6.35;;
74102;SDS011;62853;46.166;3.640;2023-07-16T11:12:04;9.68;;;5.95;;
74102;SDS011;62853;46.166;3.640;2023-07-16T11:14:33;9.13;;;5.38;;
74102;SDS011;62853;46.166;3.640;2023-07-16T11:17:08;9.63;;;5.57;;
74102;SDS011;62853;46.166;3.640;2023-07-16T11:19:34;267.30;;;21.80;;
74102;SDS011;62853;46.166;3.640;2023-07-16T11:22:01;7.45;;;5.15;;
74102;SDS011;62853;46.166;3.640;2023-07-16T11:24:28;12.90;;;6.35;;
74102;SDS011;62853;46.166;3.640;2023-07-16T11:26:54;9.55;;;5.28;;
74102;SDS011;62853;46.166;3.640;2023-07-16T11:29:22;8.52;;;5.47;;
74102;SDS011;62853;46.166;3.640;2023-07-16T11:31:51;7.82;;;5.22;;
74102;SDS011;62853;46.166;3.640;2023-07-16T11:34:20;10.35;;;5.50;;
74102;SDS011;62853;46.166;3.640;2023-07-16T11:36:46;10.52;;;5.53;;
74102;SDS011;62853;46.166;3.640;2023-07-16T11:39:13;10.73;;;5.43;;
74102;SDS011;62853;46.166;3.640;2023-07-16T11:41:38;10.52;;;5.47;;
74102;SDS011;62853;46.166;3.640;2023-07-16T11:44:04;10.25;;;5.80;;
74102;SDS011;62853;46.166;3.640;2023-07-16T11:46:33;10.13;;;5.85;;
74102;SDS011;62853;46.166;3.640;2023-07-16T11:49:02;8.10;;;5.30;;
74102;SDS011;62853;46.166;3.640;2023-07-16T11:51:27;9.20;;;5.65;;
74102;SDS011;62853;46.166;3.640;2023-07-16T11:53:55;10.18;;;6.03;;
74102;SDS011;62853;46.166;3.640;2023-07-16T11:56:21;10.35;;;6.05;;
74102;SDS011;62853;46.166;3.640;2023-07-16T11:58:47;10.13;;;5.50;;
74102;SDS011;62853;46.166;3.640;2023-07-16T12:01:13;8.38;;;5.88;;
74102;SDS011;62853;46.166;3.640;2023-07-16T12:03:39;8.02;;;5.18;;
74102;SDS011;62853;46.166;3.640;2023-07-16T12:06:05;11.75;;;5.50;;
74102;SDS011;62853;46.166;3.640;2023-07-16T12:08:30;9.38;;;5.15;;
74102;SDS011;62853;46.166;3.640;2023-07-16T12:10:56;7.68;;;4.82;;
74102;SDS011;62853;46.166;3.640;2023-07-16T12:13:21;8.68;;;5.20;;
74102;SDS011;62853;46.166;3.640;2023-07-16T12:15:46;9.45;;;5.70;;
74102;SDS011;62853;46.166;3.640;2023-07-16T12:18:12;9.32;;;5.45;;
74102;SDS011;62853;46.166;3.640;2023-07-16T12:20:37;9.30;;;5.05;;
74102;SDS011;62853;46.166;3.640;2023-07-16T12:23:03;8.75;;;5.43;;
74102;SDS011;62853;46.166;3.640;2023-07-16T12:25:28;9.52;;;5.85;;
74102;SDS011;62853;46.166;3.640;2023-07-16T12:27:54;10.02;;;5.75;;
74102;SDS011;62853;46.166;3.640;2023-07-16T12:30:19;10.30;;;5.47;;
74102;SDS011;62853;46.166;3.640;2023-07-16T12:32:45;8.68;;;5.60;;
74102;SDS011;62853;46.166;3.640;2023-07-16T12:35:10;8.07;;;5.63;;
74102;SDS011;62853;46.166;3.640;2023-07-16T12:37:35;8.68;;;5.65;;
74102;SDS011;62853;46.166;3.640;2023-07-16T12:40:01;9.57;;;5.50;;
74102;SDS011;62853;46.166;3.640;2023-07-16T12:42:27;8.70;;;5.90;;
74102;SDS011;62853;46.166;3.640;2023-07-16T12:44:52;15.07;;;6.75;;
74102;SDS011;62853;46.166;3.640;2023-07-16T12:47:18;8.75;;;6.15;;
74102;SDS011;62853;46.166;3.640;2023-07-16T12:49:43;8.93;;;6.20;;
74102;SDS011;62853;46.166;3.640;2023-07-16T12:52:08;10.27;;;5.93;;
74102;SDS011;62853;46.166;3.640;2023-07-16T12:54:34;10.40;;;5.82;;
74102;SDS011;62853;46.166;3.640;2023-07-16T12:56:59;10.43;;;6.15;;
74102;SDS011;62853;46.166;3.640;2023-07-16T12:59:25;8.25;;;5.65;;
74102;SDS011;62853;46.166;3.640;2023-07-16T13:01:50;8.18;;;6.03;;
74102;SDS011;62853;46.166;3.640;2023-07-16T13:04:16;9.55;;;5.28;;
74102;SDS011;62853;46.166;3.640;2023-07-16T13:06:41;9.90;;;5.95;;
74102;SDS011;62853;46.166;3.640;2023-07-16T13:09:07;8.73;;;5.43;;
74102;SDS011;62853;46.166;3.640;2023-07-16T13:11:33;7.22;;;5.05;;
74102;SDS011;62853;46.166;3.640;2023-07-16T13:13:58;9.25;;;5.60;;
74102;SDS011;62853;46.166;3.640;2023-07-16T13:16:24;8.55;;;5.20;;
74102;SDS011;62853;46.166;3.640;2023-07-16T13:18:49;9.30;;;5.35;;
74102;SDS011;62853;46.166;3.640;2023-07-16T13:21:14;10.80;;;5.47;;
74102;SDS011;62853;46.166;3.640;2023-07-16T13:23:40;9.20;;;5.70;;
74102;SDS011;62853;46.166;3.640;2023-07-16T13:26:05;11.40;;;5.75;;
74102;SDS011;62853;46.166;3.640;2023-07-16T13:28:30;9.50;;;5.38;;
74102;SDS011;62853;46.166;3.640;2023-07-16T13:30:56;8.02;;;5.20;;
74102;SDS011;62853;46.166;3.640;2023-07-16T13:33:22;9.02;;;4.93;;
74102;SDS011;62853;46.166;3.640;2023-07-16T13:35:48;8.50;;;4.72;;
74102;SDS011;62853;46.166;3.640;2023-07-16T13:38:13;7.50;;;4.50;;
74102;SDS011;62853;46.166;3.640;2023-07-16T13:40:38;5.90;;;4.75;;
74102;SDS011;62853;46.166;3.640;2023-07-16T13:43:04;7.10;;;4.90;;
74102;SDS011;62853;46.166;3.640;2023-07-16T13:45:31;7.43;;;4.50;;
74102;SDS011;62853;46.166;3.640;2023-07-16T13:47:58;6.82;;;4.57;;
74102;SDS011;62853;46.166;3.640;2023-07-16T13:50:23;7.18;;;4.38;;
74102;SDS011;62853;46.166;3.640;2023-07-16T13:52:49;7.10;;;4.38;;
74102;SDS011;62853;46.166;3.640;2023-07-16T13:55:14;7.70;;;4.90;;
74102;SDS011;62853;46.166;3.640;2023-07-16T13:57:39;7.00;;;4.30;;
74102;SDS011;62853;46.166;3.640;2023-07-16T14:00:06;9.88;;;4.65;;
74102;SDS011;62853;46.166;3.640;2023-07-16T14:02:34;8.73;;;4.50;;
74102;SDS011;62853;46.166;3.640;2023-07-16T14:05:00;7.47;;;4.50;;
74102;SDS011;62853;46.166;3.640;2023-07-16T14:07:25;5.60;;;4.13;;
74102;SDS011;62853;46.166;3.640;2023-07-16T14:09:51;8.52;;;4.40;;
74102;SDS011;62853;46.166;3.640;2023-07-16T14:12:16;12.30;;;4.20;;
74102;SDS011;62853;46.166;3.640;2023-07-16T14:14:41;9.77;;;4.40;;
74102;SDS011;62853;46.166;3.640;2023-07-16T14:17:07;5.95;;;4.30;;
74102;SDS011;62853;46.166;3.640;2023-07-16T14:19:32;6.68;;;4.75;;
74102;SDS011;62853;46.166;3.640;2023-07-16T14:21:57;8.18;;;4.25;;
74102;SDS011;62853;46.166;3.640;2023-07-16T14:24:23;6.75;;;4.38;;
74102;SDS011;62853;46.166;3.640;2023-07-16T14:26:48;7.43;;;4.32;;
74102;SDS011;62853;46.166;3.640;2023-07-16T14:29:14;8.43;;;3.95;;
74102;SDS011;62853;46.166;3.640;2023-07-16T14:31:40;5.95;;;4.30;;
74102;SDS011;62853;46.166;3.640;2023-07-16T14:34:05;8.48;;;4.18;;
74102;SDS011;62853;46.166;3.640;2023-07-16T14:36:30;7.45;;;4.57;;
74102;SDS011;62853;46.166;3.640;2023-07-16T14:38:56;6.25;;;4.47;;
74102;SDS011;62853;46.166;3.640;2023-07-16T14:41:21;7.28;;;4.80;;
74102;SDS011;62853;46.166;3.640;2023-07-16T14:43:47;6.53;;;4.50;;
74102;SDS011;62853;46.166;3.640;2023-07-16T14:46:14;8.80;;;4.78;;
74102;SDS011;62853;46.166;3.640;2023-07-16T14:48:42;8.52;;;5.00;;
74102;SDS011;62853;46.166;3.640;2023-07-16T14:51:09;9.00;;;4.78;;
74102;SDS011;62853;46.166;3.640;2023-07-16T14:53:35;8.80;;;4.88;;